Time;durP1;ratioP1;P1;durP2;ratioP2;P2;SDS_P1;SDS_P2;PMS_P1;PMS_P2;Temp;Humidity;BMP_temperature;BMP_pressure;BME280_temperature;BME280_humidity;BME280_pressure;Samples;Min_cycle;Max_cycle;Signal;HPM_P1;HPM_P2
2022/05/11 00:01:49;;;;;;;9.10;5.95;;;;;;;18.37;64.98;99706.53;12191574;19;20030;-83
2022/05/11 00:05:51;;;;;;;9.52;5.40;;;;;;;18.39;65.19;99703.47;12203630;19;20033;-84
2022/05/11 00:09:53;;;;;;;10.38;6.97;;;;;;;18.37;65.84;99697.34;12213179;19;20010;-82
2022/05/11 00:13:55;;;;;;;10.93;5.03;;;;;;;18.33;65.81;99693.53;12184570;19;20015;-83
2022/05/11 00:17:57;;;;;;;;;;;;;;;18.30;65.79;99692.16;12210600;19;20011;-83
2022/05/11 00:21:59;;;;;;;6.47;5.20;;;;;;;18.29;65.81;99695.25;12189274;19;19939;-83
2022/05/11 00:26:00;;;;;;;8.02;5.95;;;;;;;18.25;66.19;99688.63;12207929;19;20030;-86
2022/05/11 00:30:03;;;;;;;8.38;5.47;;;;;;;18.23;66.54;99683.34;12206402;19;20014;-84
2022/05/11 00:34:04;;;;;;;7.35;5.38;;;;;;;18.23;66.67;99680.56;12181506;19;20002;-83
2022/05/11 00:38:06;;;;;;;6.78;5.30;;;;;;;18.20;66.78;99683.94;12205145;19;20014;-84
2022/05/11 00:42:08;;;;;;;7.05;5.45;;;;;;;18.17;66.98;99676.19;12205017;19;20077;-84
2022/05/11 00:46:13;;;;;;;7.65;5.50;;;;;;;18.10;67.30;99679.38;12184371;19;20014;-84
2022/05/11 00:50:20;;;;;;;9.63;6.13;;;;;;;18.02;67.53;99677.25;12201925;19;20010;-83
2022/05/11 00:54:23;;;;;;;7.28;5.75;;;;;;;17.94;68.38;99676.00;12204890;19;20382;-83
2022/05/11 00:58:47;;;;;;;7.82;5.72;;;;;;;17.85;69.22;99666.66;12184752;19;20074;-82
2022/05/11 01:02:54;;;;;;;7.05;5.38;;;;;;;17.81;69.31;99661.97;12207007;19;20014;-84
2022/05/11 01:06:57;;;;;;;8.55;5.88;;;;;;;17.76;69.18;99663.69;12182808;19;20002;-82
2022/05/11 01:11:02;;;;;;;8.75;5.78;;;;;;;17.75;69.67;99667.59;12193747;19;20397;-85
2022/05/11 01:15:05;;;;;;;6.32;5.43;;;;;;;17.72;69.45;99665.41;12202140;19;20010;-84
2022/05/11 01:19:19;;;;;;;7.35;5.90;;;;;;;17.69;69.72;99666.00;12184380;19;20006;-83
2022/05/11 01:23:58;;;;;;;9.13;6.22;;;;;;;17.63;70.30;99656.06;12205059;19;20488;-82
2022/05/11 01:28:03;;;;;;;11.23;5.95;;;;;;;17.58;70.41;99658.09;12185654;19;20370;-84
2022/05/11 01:32:05;;;;;;;8.65;5.82;;;;;;;17.54;70.81;99655.09;12205306;19;20389;-85
2022/05/11 01:36:29;;;;;;;8.00;5.93;;;;;;;17.53;71.11;99653.44;12210606;19;20044;-84
2022/05/11 01:40:30;;;;;;;8.85;6.05;;;;;;;17.46;71.25;99653.81;12181304;19;20006;-83
2022/05/11 01:44:32;;;;;;;8.95;5.95;;;;;;;17.45;71.29;99654.94;12195330;19;20023;-84
2022/05/11 01:48:34;;;;;;;7.55;5.85;;;;;;;17.42;71.93;99641.59;12205663;19;20030;-83
2022/05/11 01:52:35;;;;;;;7.97;6.10;;;;;;;17.42;71.73;99646.34;12188080;19;20087;-83
2022/05/11 01:56:37;;;;;;;8.25;5.65;;;;;;;17.40;72.07;99648.59;12202280;19;20011;-82
2022/05/11 02:00:42;;;;;;;10.52;6.28;;;;;;;17.37;72.16;99635.25;12203621;19;20017;-83
2022/05/11 02:09:06;;;;;;;7.78;6.15;;;;;;;17.34;72.83;99645.06;12208654;19;20010;-83
2022/05/11 02:13:08;;;;;;;7.45;5.85;;;;;;;17.35;72.46;99640.31;12182153;19;20011;-84
2022/05/11 02:17:10;;;;;;;8.20;5.88;;;;;;;17.31;72.74;99643.72;12199032;19;20383;-84
2022/05/11 02:21:11;;;;;;;10.15;5.93;;;;;;;17.30;73.03;99647.59;12202272;19;20042;-83
2022/05/11 02:25:15;;;;;;;8.15;6.13;;;;;;;17.33;72.74;99648.13;12174523;19;20010;-83
2022/05/11 02:29:17;;;;;;;8.45;5.43;;;;;;;17.30;73.08;99644.00;12201773;19;20034;-82
2022/05/11 02:33:20;;;;;;;9.50;6.13;;;;;;;17.27;72.94;99653.78;12194764;19;20066;-86
2022/05/11 02:37:22;;;;;;;9.07;6.20;;;;;;;17.23;73.24;99647.16;12182607;19;20010;-83
2022/05/11 02:41:24;;;;;;;9.32;6.20;;;;;;;17.19;73.41;99642.47;12201707;19;20014;-83
2022/05/11 02:45:26;;;;;;;9.43;6.10;;;;;;;17.16;73.75;99643.88;12202055;19;20377;-83
2022/05/11 02:49:27;;;;;;;7.93;6.18;;;;;;;17.15;73.81;99641.41;12184156;19;20014;-83
2022/05/11 02:53:31;;;;;;;8.20;6.30;;;;;;;17.12;74.13;99645.63;12205269;19;20006;-85
2022/05/11 02:57:33;;;;;;;9.50;6.00;;;;;;;17.09;74.33;99641.47;12212450;19;20106;-82
2022/05/11 03:01:34;;;;;;;10.15;6.13;;;;;;;17.09;74.12;99637.84;12194026;19;20034;-85
2022/05/11 03:05:36;;;;;;;8.80;6.33;;;;;;;17.06;74.47;99642.06;12207215;19;20006;-83
2022/05/11 03:09:38;;;;;;;11.35;5.93;;;;;;;17.05;74.57;99642.38;12206553;19;20397;-84
2022/05/11 03:13:39;;;;;;;8.15;5.68;;;;;;;17.03;74.53;99636.25;12185800;19;20090;-83
2022/05/11 03:17:41;;;;;;;7.75;5.88;;;;;;;17.03;74.86;99639.03;12214493;19;20014;-84
2022/05/11 03:21:43;;;;;;;7.77;5.73;;;;;;;17.04;74.91;99637.91;12210334;19;20031;-83
2022/05/11 03:25:45;;;;;;;8.85;6.70;;;;;;;17.06;74.86;99630.09;12190202;19;20039;-83
2022/05/11 03:29:47;;;;;;;7.75;5.82;;;;;;;17.04;74.79;99626.78;12207551;19;20006;-84
2022/05/11 03:38:09;;;;;;;7.28;5.65;;;;;;;17.00;75.02;99625.72;12194966;19;20078;-83
2022/05/11 03:42:14;;;;;;;9.07;6.00;;;;;;;16.97;74.94;99620.75;12214857;19;20011;-83
2022/05/11 03:46:15;;;;;;;9.02;5.70;;;;;;;16.93;75.12;99617.75;12185489;19;20018;-83
2022/05/11 03:50:22;;;;;;;7.15;5.50;;;;;;;16.95;75.59;99623.00;12212275;19;20018;-83
2022/05/11 03:54:24;;;;;;;7.85;5.30;;;;;;;16.93;75.55;99616.91;12216214;19;20133;-82
2022/05/11 03:58:26;;;;;;;7.03;5.70;;;;;;;16.94;75.27;99607.44;12191837;19;20433;-84
2022/05/11 04:02:27;;;;;;;11.73;5.82;;;;;;;16.94;75.21;99613.81;12214385;19;20011;-83
2022/05/11 04:06:29;;;;;;;7.50;5.75;;;;;;;16.94;75.13;99607.44;12199552;19;20003;-86
2022/05/11 04:10:31;;;;;;;8.25;5.78;;;;;;;16.98;75.30;99612.09;12186521;19;20113;-83
2022/05/11 04:14:32;;;;;;;8.73;5.25;;;;;;;17.01;74.88;99619.88;12206819;19;20007;-83
2022/05/11 04:18:35;;;;;;;8.98;5.22;;;;;;;16.99;75.21;99613.78;12210309;19;20006;-84
2022/05/11 04:22:37;;;;;;;;;;;;;;;17.00;75.01;99615.41;12190177;19;20010;-84
2022/05/11 04:26:38;;;;;;;6.78;5.47;;;;;;;17.00;74.93;99615.41;12206788;19;19986;-84
2022/05/11 04:30:40;;;;;;;8.95;4.95;;;;;;;16.97;75.33;99612.41;12208180;19;20011;-83
2022/05/11 04:34:42;;;;;;;8.43;6.00;;;;;;;16.95;75.52;99611.84;12179602;19;20011;-82
2022/05/11 04:38:44;;;;;;;7.73;5.77;;;;;;;16.93;75.52;99609.38;12208492;19;20018;-83
2022/05/11 04:42:45;;;;;;;9.63;5.80;;;;;;;16.97;75.75;99606.84;12208398;19;20027;-83
2022/05/11 04:46:47;;;;;;;8.43;5.22;;;;;;;17.01;75.48;99616.25;12181009;19;20014;-82
2022/05/11 04:50:49;;;;;;;7.83;4.93;;;;;;;17.03;75.34;99608.44;12196137;19;20118;-85
2022/05/11 04:54:50;;;;;;;17.48;6.55;;;;;;;17.02;75.38;99607.59;12194177;19;20010;-83
2022/05/11 04:58:57;;;;;;;7.75;5.45;;;;;;;17.00;75.62;99607.06;12189973;19;20405;-81
2022/05/11 05:03:01;;;;;;;7.85;6.28;;;;;;;17.00;75.45;99611.81;12212106;19;20022;-81
2022/05/11 05:07:07;;;;;;;7.28;5.57;;;;;;;17.03;75.67;99616.78;12183650;19;20022;-83
2022/05/11 05:11:09;;;;;;;7.50;5.72;;;;;;;17.07;75.75;99612.25;12205712;19;20074;-83
2022/05/11 05:15:12;;;;;;;9.13;5.97;;;;;;;17.15;75.61;99617.19;12212884;19;20015;-82
2022/05/11 05:19:15;;;;;;;7.50;5.47;;;;;;;17.19;75.48;99607.13;12191372;19;20051;-82
2022/05/11 05:23:16;;;;;;;7.72;5.60;;;;;;;17.26;75.22;99617.88;12224979;19;20010;-82
2022/05/11 05:27:19;;;;;;;7.32;5.40;;;;;;;17.34;75.14;99620.00;12225484;19;20052;-82
2022/05/11 05:31:29;;;;;;;7.97;5.82;;;;;;;17.45;74.74;99623.47;12199365;19;20014;-82
2022/05/11 05:35:31;;;;;;;7.40;5.15;;;;;;;17.61;74.96;99627.69;12217057;19;20006;-86
2022/05/11 05:39:32;;;;;;;9.77;5.50;;;;;;;17.74;74.26;99624.16;12234582;19;20010;-85
2022/05/11 05:43:34;;;;;;;11.35;5.47;;;;;;;17.88;73.51;99624.25;12203095;19;20010;-84
2022/05/11 05:47:37;;;;;;;10.80;5.70;;;;;;;17.98;73.10;99628.81;12232926;19;20479;-82
2022/05/11 05:51:39;;;;;;;;;;;;;;;18.07;72.74;99629.78;12215736;19;20082;-84
2022/05/11 05:55:41;;;;;;;7.72;4.88;;;;;;;18.21;71.86;99622.31;12185643;19;19914;-83
2022/05/11 05:59:43;;;;;;;6.82;5.60;;;;;;;18.34;71.41;99622.66;12190202;19;20018;-82
2022/05/11 06:03:45;;;;;;;9.38;5.05;;;;;;;18.46;70.70;99622.97;12209878;19;20022;-81
2022/05/11 06:07:47;;;;;;;6.70;4.80;;;;;;;18.61;70.01;99627.44;12180436;19;20007;-81
2022/05/11 06:11:48;;;;;;;6.43;4.90;;;;;;;18.78;69.22;99626.91;12208140;19;20011;-81
2022/05/11 06:15:52;;;;;;;8.52;5.40;;;;;;;18.98;68.65;99629.28;12210983;19;20018;-82
2022/05/11 06:19:54;;;;;;;5.60;4.57;;;;;;;19.12;67.82;99627.28;12191723;19;20019;-82
2022/05/11 06:23:56;;;;;;;6.70;4.53;;;;;;;19.34;67.13;99623.78;12183586;19;20078;-82
2022/05/11 06:27:58;;;;;;;7.47;4.47;;;;;;;19.50;65.58;99621.44;12214270;19;20003;-82
2022/05/11 06:32:00;;;;;;;8.20;4.38;;;;;;;19.66;64.65;99626.72;12204915;19;20011;-81
2022/05/11 06:36:04;;;;;;;5.77;4.50;;;;;;;19.90;63.67;99627.28;12228802;19;20058;-80
2022/05/11 06:40:06;;;;;;;7.75;4.57;;;;;;;20.16;63.13;99626.63;12233217;19;20074;-82
2022/05/11 06:44:09;;;;;;;9.27;4.32;;;;;;;20.31;61.78;99620.66;12198065;19;20014;-81
2022/05/11 06:48:14;;;;;;;5.47;4.15;;;;;;;20.51;61.06;99626.88;12227511;19;20010;-82
2022/05/11 06:52:17;;;;;;;7.30;4.47;;;;;;;20.67;59.84;99628.97;12226136;19;20118;-83
2022/05/11 07:00:41;;;;;;;9.23;4.88;;;;;;;21.08;57.81;99627.00;12213203;19;20014;-81
2022/05/11 07:04:43;;;;;;;6.80;4.80;;;;;;;21.28;57.60;99623.59;12213548;19;20038;-81
2022/05/11 07:08:45;;;;;;;7.57;4.85;;;;;;;21.47;57.48;99636.53;12184629;19;21898;-82
2022/05/11 07:12:47;;;;;;;8.45;4.78;;;;;;;21.63;56.34;99626.50;12212876;19;20011;-81
2022/05/11 07:16:49;;;;;;;6.07;4.33;;;;;;;21.80;55.99;99620.91;12211008;19;20320;-81
2022/05/11 07:20:51;;;;;;;8.37;5.00;;;;;;;22.00;55.59;99627.81;12194819;19;20347;-81
2022/05/11 07:24:53;;;;;;;12.90;4.70;;;;;;;22.20;55.25;99620.75;12223242;19;20007;-81
2022/05/11 07:28:55;;;;;;;6.60;4.70;;;;;;;22.35;54.50;99621.38;12223784;19;20010;-80
2022/05/11 07:32:57;;;;;;;7.22;4.70;;;;;;;22.52;54.21;99615.75;12202456;19;20011;-80
2022/05/11 07:36:58;;;;;;;7.03;4.50;;;;;;;22.62;53.71;99620.97;12210597;19;20015;-81
2022/05/11 07:41:00;;;;;;;7.72;4.85;;;;;;;22.73;53.36;99611.03;12190252;19;20003;-82
2022/05/11 07:45:03;;;;;;;7.82;4.75;;;;;;;22.82;53.00;99613.00;12207393;19;20468;-83
2022/05/11 07:49:05;;;;;;;7.82;5.15;;;;;;;22.87;52.60;99616.41;12208608;19;20018;-82
2022/05/11 07:53:07;;;;;;;9.10;5.35;;;;;;;22.96;52.81;99619.22;12185662;19;20473;-80
2022/05/11 08:01:30;;;;;;;8.82;5.38;;;;;;;23.04;52.96;99611.94;12208119;19;20369;-81
2022/05/11 08:05:32;;;;;;;;;;;;;;;23.25;53.03;99609.16;12182695;19;20018;-82
2022/05/11 08:09:36;;;;;;;7.57;5.40;;;;;;;23.33;52.29;99605.50;12202095;19;20443;-83
2022/05/11 08:13:38;;;;;;;7.03;5.72;;;;;;;23.62;52.48;99602.66;12211874;19;20003;-81
2022/05/11 08:17:42;;;;;;;8.30;5.43;;;;;;;23.86;52.16;99595.53;12179923;19;20077;-82
2022/05/11 08:21:52;;;;;;;11.70;6.10;;;;;;;24.05;51.73;99590.22;12203716;19;20487;-80
2022/05/11 08:25:57;;;;;;;10.85;5.72;;;;;;;24.26;51.10;99592.19;12209412;19;20073;-80
2022/05/11 08:34:19;;;;;;;8.85;6.05;;;;;;;24.64;50.16;99579.88;12204864;19;20007;-80
2022/05/11 08:38:26;;;;;;;8.38;5.13;;;;;;;24.71;49.58;99566.03;12186045;19;20006;-81
2022/05/11 08:42:32;;;;;;;11.73;5.25;;;;;;;24.87;49.22;99572.63;12212099;19;20011;-81
2022/05/11 08:47:15;;;;;;;8.35;5.00;;;;;;;25.15;48.05;99574.75;12201325;19;20052;-81
2022/05/11 08:51:29;;;;;;;8.05;5.78;;;;;;;25.38;47.60;99573.09;12184144;19;20346;-82
2022/05/11 08:55:49;;;;;;;7.43;5.35;;;;;;;25.57;46.92;99575.28;12204425;19;20721;-83
2022/05/11 08:59:59;;;;;;;6.57;4.80;;;;;;;25.76;46.92;99565.34;12173194;19;20074;-82
2022/05/11 09:04:08;;;;;;;13.25;5.20;;;;;;;26.02;46.35;99564.91;12198314;19;20032;-83
2022/05/11 09:08:11;;;;;;;8.02;4.82;;;;;;;26.13;46.01;99563.22;12182833;19;20018;-82
2022/05/11 09:12:22;;;;;;;7.30;5.03;;;;;;;26.33;45.01;99556.53;12200192;19;20034;-84
2022/05/11 09:16:41;;;;;;;15.85;6.50;;;;;;;26.49;44.37;99552.91;12205660;19;20006;-85
2022/05/11 09:20:52;;;;;;;7.03;4.80;;;;;;;26.60;43.86;99551.22;12176821;19;20029;-83
2022/05/11 09:29:21;;;;;;;6.35;4.90;;;;;;;26.99;42.59;99552.19;12186007;19;20018;-83
2022/05/11 09:33:28;;;;;;;11.27;5.15;;;;;;;26.84;42.29;99538.09;12201208;19;20495;-84
2022/05/11 09:37:42;;;;;;;8.38;5.05;;;;;;;26.97;42.49;99539.63;12206547;19;20925;-85
2022/05/11 09:42:26;;;;;;;7.55;4.88;;;;;;;27.24;41.99;99541.50;12171165;19;20559;-84
2022/05/11 09:46:43;;;;;;;8.98;5.22;;;;;;;27.47;42.05;99533.13;12203037;19;20259;-83
2022/05/11 09:51:36;;;;;;;10.43;5.03;;;;;;;27.78;41.07;99528.56;12223363;19;20015;-81
2022/05/11 09:56:24;;;;;;;8.70;4.90;;;;;;;27.91;39.90;99532.09;12198031;19;20543;-82
2022/05/11 10:01:09;;;;;;;13.73;4.72;;;;;;;27.99;40.41;99525.38;12103222;19;2004277;-84
2022/05/11 10:05:36;;;;;;;7.55;5.05;;;;;;;28.10;39.46;99520.72;12217201;19;20936;-84
2022/05/11 10:10:24;;;;;;;5.37;4.40;;;;;;;28.30;39.50;99530.00;12092280;19;2004262;-83
2022/05/11 10:34:15;;;;;;;7.05;3.60;;;;;;;29.20;34.56;99497.53;12094395;19;2004542;-83
2022/05/11 10:39:29;;;;;;;6.03;3.88;;;;;;;29.27;34.77;99472.06;12185760;19;20006;-83
2022/05/11 10:54:10;;;;;;;8.10;4.32;;;;;;;29.37;34.74;99447.91;12178102;19;20620;-84
2022/05/11 10:58:49;;;;;;;12.00;4.43;;;;;;;28.81;35.48;99447.47;12200511;19;20018;-82
2022/05/11 11:03:21;;;;;;;8.88;4.63;;;;;;;29.49;35.19;99444.81;12210720;19;20035;-83
2022/05/11 11:07:35;;;;;;;6.35;4.15;;;;;;;29.85;33.86;99437.56;12203059;19;20074;-83
2022/05/11 11:16:46;;;;;;;9.75;4.43;;;;;;;29.85;34.47;99426.19;12196476;19;20753;-83
2022/05/11 11:26:00;;;;;;;8.35;4.63;;;;;;;30.88;32.73;99414.97;12207147;19;20023;-83
2022/05/11 11:30:11;;;;;;;6.82;3.78;;;;;;;31.05;32.23;99402.03;12186605;19;20007;-83
2022/05/11 11:34:22;;;;;;;7.65;4.25;;;;;;;31.45;32.06;99397.38;12204337;19;20011;-84
2022/05/11 11:38:30;;;;;;;10.95;4.90;;;;;;;31.84;31.04;99393.00;12182792;19;20722;-84
2022/05/11 11:42:41;;;;;;;9.88;4.15;;;;;;;31.65;31.25;99383.63;12216585;19;20011;-85
2022/05/11 11:46:53;;;;;;;8.82;4.30;;;;;;;32.27;30.09;99395.91;12230059;19;20026;-85
2022/05/11 11:51:01;;;;;;;7.22;4.38;;;;;;;32.67;28.90;99381.25;12184401;19;20457;-83
2022/05/11 11:55:27;;;;;;;5.22;4.22;;;;;;;32.81;28.46;99380.44;12207779;19;20029;-84
2022/05/11 11:59:29;;;;;;;10.55;4.70;;;;;;;32.31;29.25;99374.75;12188989;19;20003;-84
2022/05/11 12:03:36;;;;;;;12.40;4.57;;;;;;;31.54;30.46;99366.50;12204774;19;20021;-83
2022/05/11 12:16:57;;;;;;;7.90;3.67;;;;;;;32.66;25.16;99359.69;12196045;19;20480;-84
2022/05/11 12:21:00;;;;;;;6.63;3.58;;;;;;;33.52;25.54;99352.88;12185837;19;20085;-85
2022/05/11 12:25:38;;;;;;;11.55;3.80;;;;;;;34.29;24.30;99363.38;12205261;19;20491;-85
2022/05/11 12:29:59;;;;;;;8.57;4.07;;;;;;;34.94;23.04;99359.47;12184741;19;20010;-84
2022/05/11 12:34:03;;;;;;;6.67;3.80;;;;;;;35.23;22.41;99341.97;12205461;19;20090;-83
2022/05/11 12:38:09;;;;;;;5.22;3.72;;;;;;;35.55;22.38;99358.78;12192188;19;20014;-83
2022/05/11 12:42:11;;;;;;;7.68;3.72;;;;;;;35.85;21.66;99348.50;12212286;19;20050;-84
2022/05/11 12:46:17;;;;;;;7.90;3.47;;;;;;;36.41;21.40;99348.84;12217478;19;20066;-85
2022/05/11 12:50:48;;;;;;;6.53;3.70;;;;;;;36.34;20.60;99351.00;12188056;19;20006;-84
2022/05/11 12:55:02;;;;;;;15.23;3.50;;;;;;;36.42;20.52;99336.09;12205190;19;20010;-83
2022/05/11 12:59:17;;;;;;;5.68;3.17;;;;;;;36.90;20.46;99334.81;12190946;19;20018;-86
2022/05/11 13:03:36;;;;;;;10.30;3.38;;;;;;;37.20;18.69;99343.69;12200780;19;20010;-85
2022/05/11 13:07:42;;;;;;;11.88;3.38;;;;;;;36.86;18.82;99330.41;12206662;19;20027;-83
2022/05/11 13:11:44;;;;;;;7.05;3.58;;;;;;;37.49;18.24;99318.03;12183404;19;20418;-85
2022/05/11 13:15:47;;;;;;;7.75;3.22;;;;;;;37.68;18.72;99322.09;12206519;19;20514;-83
2022/05/11 13:19:59;;;;;;;7.93;3.15;;;;;;;38.21;18.32;99315.06;12200358;19;20469;-84
2022/05/11 13:24:03;;;;;;;6.40;3.15;;;;;;;38.27;17.59;99307.50;12181547;19;20002;-86
2022/05/11 13:28:27;;;;;;;8.27;3.40;;;;;;;38.98;17.96;99301.88;12206898;19;20015;-85
2022/05/11 13:32:36;;;;;;;3.90;3.50;;;;;;;39.55;17.08;99312.97;12217396;19;20044;-85
2022/05/11 13:36:44;;;;;;;6.82;4.15;;;;;;;39.33;16.87;99312.84;12197191;19;20086;-83
2022/05/11 13:40:49;;;;;;;5.65;2.85;;;;;;;39.48;16.33;99296.69;12206024;19;20362;-84
2022/05/11 13:44:57;;;;;;;5.68;2.83;;;;;;;39.64;16.61;99287.94;12181531;19;20034;-85
2022/05/11 13:49:27;;;;;;;9.32;3.40;;;;;;;39.86;16.27;99307.44;12203879;19;20452;-85
2022/05/11 13:53:33;;;;;;;11.32;3.63;;;;;;;39.04;15.91;99296.38;12178190;19;20010;-83
2022/05/11 13:57:37;;;;;;;6.50;2.97;;;;;;;38.67;16.96;99292.06;12207021;19;20025;-84
2022/05/11 14:01:45;;;;;;;4.20;2.95;;;;;;;39.51;17.21;99284.25;12195907;19;20007;-84
2022/05/11 14:05:47;;;;;;;6.70;3.80;;;;;;;40.22;16.43;99280.28;12175496;19;20010;-83
2022/05/11 14:09:49;;;;;;;6.90;3.28;;;;;;;39.96;16.21;99280.31;12198734;19;20007;-83
2022/05/11 14:13:51;;;;;;;5.65;3.10;;;;;;;39.87;16.10;99265.81;12194266;19;20021;-85
2022/05/11 14:17:54;;;;;;;5.80;3.28;;;;;;;40.06;15.92;99270.47;12180964;19;20499;-86
2022/05/11 14:21:56;;;;;;;9.15;3.65;;;;;;;39.41;15.97;99263.13;12203830;19;20425;-83
2022/05/11 14:25:58;;;;;;;11.13;3.90;;;;;;;38.14;17.38;99266.34;12203879;19;20370;-86
2022/05/11 14:30:00;;;;;;;4.82;3.05;;;;;;;36.28;18.93;99259.72;12202303;19;20014;-86
2022/05/11 14:34:12;;;;;;;5.93;3.30;;;;;;;35.22;19.95;99259.34;12197499;19;20472;-84
2022/05/11 14:38:16;;;;;;;4.88;3.78;;;;;;;33.94;21.17;99253.78;12189273;19;20039;-83
2022/05/11 14:42:18;;;;;;;7.28;3.60;;;;;;;33.88;21.21;99256.31;12220804;19;20006;-83
2022/05/11 14:46:26;;;;;;;4.95;3.50;;;;;;;34.63;20.94;99237.63;12200219;19;20018;-84
2022/05/11 14:50:28;;;;;;;7.47;4.38;;;;;;;34.12;21.51;99250.78;12191944;19;20030;-83
2022/05/11 14:54:30;;;;;;;4.03;3.40;;;;;;;33.55;22.84;99240.63;12213235;19;20010;-82
2022/05/11 15:02:54;;;;;;;8.70;4.07;;;;;;;32.17;24.54;99233.03;12184277;19;20023;-82
2022/05/11 15:06:56;;;;;;;6.60;3.70;;;;;;;31.93;25.38;99228.19;12205995;19;20010;-81
2022/05/11 15:15:47;;;;;;;6.75;3.95;;;;;;;31.01;26.41;99226.84;12203129;19;20029;-82
2022/05/11 15:25:42;;;;;;;6.43;3.40;;;;;;;30.35;27.88;99216.38;12197808;19;20013;-82
2022/05/11 15:40:31;;;;;;;6.57;3.45;;;;;;;31.08;27.22;99206.94;12209123;19;20027;-83
2022/05/11 15:44:40;;;;;;;4.68;3.70;;;;;;;30.98;26.99;99210.56;12172874;19;20010;-83
2022/05/11 15:48:57;;;;;;;7.15;3.03;;;;;;;30.71;27.33;99204.38;12203903;19;20011;-81
2022/05/11 15:53:25;;;;;;;5.63;3.63;;;;;;;30.13;28.96;99206.06;12218230;19;20011;-83
2022/05/11 15:58:03;;;;;;;8.70;4.25;;;;;;;30.03;28.56;99195.47;12201927;19;20419;-82
2022/05/11 16:02:28;;;;;;;5.30;4.20;;;;;;;29.69;29.35;99209.84;12177845;19;20078;-84
2022/05/11 16:06:52;;;;;;;6.32;3.33;;;;;;;29.38;29.44;99185.59;12201201;19;20400;-82
2022/05/11 16:10:58;;;;;;;7.45;4.13;;;;;;;29.32;29.93;99193.66;12208361;19;20090;-83
2022/05/11 16:15:12;;;;;;;7.13;3.72;;;;;;;29.24;30.56;99186.28;12172296;19;20034;-83
2022/05/11 16:23:42;;;;;;;8.05;3.55;;;;;;;28.87;31.53;99184.25;12184029;19;19914;-82
2022/05/11 16:27:44;;;;;;;8.68;3.55;;;;;;;28.74;31.33;99174.41;12209587;19;20023;-79
2022/05/11 16:31:47;;;;;;;6.30;3.20;;;;;;;28.73;31.28;99181.25;12154986;19;20006;-84
2022/05/11 16:35:49;;;;;;;3.72;3.08;;;;;;;28.72;31.73;99176.81;12184822;19;20027;-82
2022/05/11 16:39:52;;;;;;;13.35;4.05;;;;;;;28.56;32.15;99180.69;12205535;19;20011;-82
2022/05/11 16:43:59;;;;;;;6.43;3.55;;;;;;;28.50;32.28;99176.56;12202839;19;20028;-82
2022/05/11 16:48:01;;;;;;;5.30;3.55;;;;;;;28.30;32.39;99177.88;12182070;19;20007;-84
2022/05/11 16:52:08;;;;;;;4.40;3.00;;;;;;;28.20;32.47;99176.53;12207291;19;20358;-83
2022/05/11 16:56:10;;;;;;;6.00;3.65;;;;;;;28.07;33.08;99169.47;12202418;19;20361;-81
2022/05/11 17:09:41;;;;;;;;;;;;;;;27.95;33.09;99162.00;12207294;19;20360;-82
2022/05/11 17:52:48;;;;;;;7.28;3.20;;;;;;;27.11;35.18;99163.84;12233782;19;20347;-82
2022/05/11 17:56:49;;;;;;;6.57;2.65;;;;;;;27.22;34.93;99172.56;12169103;19;20073;-82
2022/05/11 18:01:01;;;;;;;6.30;3.65;;;;;;;27.18;34.80;99178.13;12203533;19;20041;-81
2022/05/11 18:05:11;;;;;;;8.43;3.10;;;;;;;27.07;35.45;99179.09;12190581;19;20007;-82
2022/05/11 18:09:13;;;;;;;9.95;3.65;;;;;;;26.91;35.41;99177.22;12170749;19;20003;-82
2022/05/11 18:13:25;;;;;;;10.13;3.65;;;;;;;26.84;35.36;99179.09;12200036;19;20006;-82
2022/05/11 18:17:27;;;;;;;4.43;2.97;;;;;;;26.79;35.22;99183.84;12179611;19;20011;-82
2022/05/11 18:21:36;;;;;;;8.20;3.65;;;;;;;26.66;36.15;99178.75;12203499;19;20018;-81
2022/05/11 18:25:40;;;;;;;8.77;3.17;;;;;;;26.52;35.85;99191.38;12213729;19;20467;-81
2022/05/11 18:29:46;;;;;;;9.90;3.10;;;;;;;26.37;36.62;99204.34;12190380;19;20082;-82
2022/05/11 18:33:53;;;;;;;7.60;3.03;;;;;;;26.31;36.19;99205.84;12209270;19;20539;-84
2022/05/11 18:38:02;;;;;;;7.43;3.03;;;;;;;26.17;36.63;99213.19;12219584;19;20014;-84
2022/05/11 18:42:05;;;;;;;10.98;3.25;;;;;;;25.93;36.42;99220.69;12192186;19;20014;-83
2022/05/11 18:46:13;;;;;;;5.35;2.70;;;;;;;25.74;36.78;99227.06;12206141;19;20011;-84
2022/05/11 18:50:32;;;;;;;8.70;4.03;;;;;;;25.53;36.90;99235.03;12189542;19;20003;-85
2022/05/11 19:00:17;;;;;;;7.32;2.95;;;;;;;24.95;35.79;99255.19;12213705;19;20049;-81
2022/05/11 19:04:19;;;;;;;4.95;2.90;;;;;;;24.84;35.34;99254.91;12208991;19;20016;-82
2022/05/11 19:08:24;;;;;;;3.53;2.37;;;;;;;24.76;35.03;99262.31;12192230;19;20015;-80
2022/05/11 19:12:28;;;;;;;5.22;2.47;;;;;;;24.63;34.03;99263.53;12213092;19;20480;-81
2022/05/11 19:16:32;;;;;;;6.68;2.33;;;;;;;24.50;34.14;99273.19;12207718;19;20010;-81
2022/05/11 19:21:18;;;;;;;5.07;2.05;;;;;;;24.31;34.20;99279.44;12120537;19;20646;-81
2022/05/11 19:25:35;;;;;;;13.73;4.25;;;;;;;24.09;33.80;99287.22;12232890;19;20034;-81
2022/05/11 19:29:49;;;;;;;5.22;2.28;;;;;;;23.93;33.77;99294.72;12180271;19;20018;-82
2022/05/11 19:34:10;;;;;;;4.85;2.03;;;;;;;23.76;34.35;99298.56;12211834;19;20415;-80
2022/05/11 19:38:15;;;;;;;7.95;2.40;;;;;;;23.59;34.19;99308.03;12225310;19;20409;-81
2022/05/11 19:42:40;;;;;;;4.80;2.30;;;;;;;23.41;34.62;99306.59;12211610;19;20007;-81
2022/05/11 19:47:00;;;;;;;9.43;2.83;;;;;;;23.25;35.08;99308.41;12182584;19;20022;-80
2022/05/11 19:51:03;;;;;;;6.25;2.60;;;;;;;23.12;34.69;99313.16;12209940;19;20524;-83
2022/05/11 19:55:07;;;;;;;6.45;2.25;;;;;;;23.02;35.28;99305.97;12199311;19;20030;-79
2022/05/11 19:59:10;;;;;;;5.35;2.38;;;;;;;22.94;35.18;99313.34;12191586;19;20007;-81
2022/05/11 20:17:48;;;;;;;5.80;2.20;;;;;;;22.58;35.74;99321.56;12213445;19;20036;-82
2022/05/11 20:22:10;;;;;;;4.32;1.90;;;;;;;22.48;36.70;99312.34;12201035;19;20011;-81
2022/05/11 22:07:31;;;;;;;9.55;3.03;;;;;;;21.85;38.71;99320.63;12170325;19;20011;-82
2022/05/11 22:27:18;;;;;;;5.90;2.47;;;;;;;21.64;39.46;99344.94;12172680;19;20022;-83
2022/05/11 22:31:29;;;;;;;6.80;2.67;;;;;;;21.50;40.08;99350.75;12196107;19;20003;-83
2022/05/11 22:36:31;;;;;;;5.35;2.85;;;;;;;21.37;40.58;99347.00;12174370;19;20050;-83
2022/05/11 22:46:06;;;;;;;5.88;2.70;;;;;;;21.16;40.93;99365.63;12190122;19;20015;-83
2022/05/11 22:50:19;;;;;;;4.60;3.00;;;;;;;21.05;41.30;99367.94;12168412;19;20015;-82
2022/05/11 22:54:52;;;;;;;7.03;3.17;;;;;;;20.96;41.54;99367.13;12187193;19;20007;-83
2022/05/11 22:58:56;;;;;;;8.63;3.00;;;;;;;20.86;41.69;99376.69;12194266;19;20010;-83
2022/05/11 23:03:13;;;;;;;4.55;2.33;;;;;;;20.76;42.31;99377.00;12177361;19;20018;-83
2022/05/11 23:07:35;;;;;;;4.60;2.42;;;;;;;20.68;42.88;99395.44;12199250;19;20003;-83
2022/05/11 23:22:37;;;;;;;6.18;3.20;;;;;;;20.37;44.21;99408.69;12206853;19;20468;-82
2022/05/11 23:27:09;;;;;;;6.35;3.20;;;;;;;20.25;45.25;99404.53;12172766;19;20028;-83
2022/05/11 23:32:36;;;;;;;5.47;2.80;;;;;;;20.15;45.11;99404.00;12188963;19;20474;-84
2022/05/11 23:37:00;;;;;;;6.78;2.90;;;;;;;20.06;45.74;99397.56;12210741;19;20376;-83
2022/05/11 23:41:01;;;;;;;5.75;2.88;;;;;;;19.99;45.83;99400.84;12179170;19;20018;-81
2022/05/11 23:45:05;;;;;;;8.38;4.03;;;;;;;19.94;46.41;99409.34;12199587;19;20014;-81
2022/05/11 23:49:07;;;;;;;4.40;2.70;;;;;;;19.84;46.18;99396.50;12206334;19;20017;-81
2022/05/11 23:53:08;;;;;;;5.03;2.80;;;;;;;19.74;46.97;99389.19;12174424;19;20114;-83
2022/05/11 23:57:12;;;;;;;6.10;3.30;;;;;;;19.66;47.51;99405.91;12210012;19;20011;-82
